Time;durP1;ratioP1;P1;durP2;ratioP2;P2;SDS_P1;SDS_P2;PMS_P1;PMS_P2;Temp;Humidity;BMP_temperature;BMP_pressure;BME280_temperature;BME280_humidity;BME280_pressure;Samples;Min_cycle;Max_cycle;Signal;HPM_P1;HPM_P2
2022/12/20 00:02:20;;;;;;;;;;;;;;;;;;5056127;28;20032;-82
2022/12/20 00:04:46;;;;;;;13.20;6.10;;;;;;;;;;5056097;28;19912;-82
2022/12/20 00:07:11;;;;;;;;;;;;;;;;;;5056886;28;20052;-82
2022/12/20 00:09:37;;;;;;;11.20;5.78;;;;;;;;;;5037827;28;20006;-82
2022/12/20 00:12:02;;;;;;;;;;;;;;;;;;5040585;28;20056;-82
2022/12/20 00:14:30;;;;;;;12.30;6.13;;;;;;;;;;5056643;28;19942;-82
2022/12/20 00:16:56;;;;;;;13.05;6.60;;;;;;;;;;5013692;28;20448;-82
2022/12/20 00:19:21;;;;;;;;;;;;;;;;;;5027903;28;20033;-81
2022/12/20 00:21:47;;;;;;;12.48;6.47;;;;;;;;;;5015484;28;19910;-82
2022/12/20 00:24:12;;;;;;;;;;;;;;;;;;5026790;28;20448;-81
2022/12/20 00:26:38;;;;;;;11.10;5.53;;;;;;;;;;5014943;28;19955;-82
2022/12/20 00:29:04;;;;;;;11.23;6.20;;;;;;;;;;5014876;28;20533;-82
2022/12/20 00:31:30;;;;;;;12.43;6.28;;;;;;;;;;4999010;28;20492;-81
2022/12/20 00:33:55;;;;;;;;;;;;;;;;;;5015914;28;20041;-82
2022/12/20 00:36:21;;;;;;;11.63;6.07;;;;;;;;;;5029494;28;20109;-82
2022/12/20 00:38:47;;;;;;;10.65;5.18;;;;;;;;;;5013471;28;20489;-82
2022/12/20 00:41:13;;;;;;;11.02;6.40;;;;;;;;;;5014743;28;20026;-82
2022/12/20 00:43:39;;;;;;;12.05;6.25;;;;;;;;;;5016305;28;20056;-82
2022/12/20 00:46:04;;;;;;;;;;;;;;;;;;4997057;28;20025;-81
2022/12/20 00:48:31;;;;;;;11.20;5.75;;;;;;;;;;5015003;28;19960;-81
2022/12/20 00:50:57;;;;;;;12.05;6.93;;;;;;;;;;5009356;28;20489;-82
2022/12/20 00:53:23;;;;;;;11.90;6.20;;;;;;;;;;5014568;28;20030;-81
2022/12/20 00:55:48;;;;;;;;;;;;;;;;;;5013456;28;20400;-80
2022/12/20 00:58:14;;;;;;;11.32;5.93;;;;;;;;;;5020636;28;19913;-81
2022/12/20 01:00:39;;;;;;;14.88;6.80;;;;;;;;;;5013652;28;20113;-83
2022/12/20 01:03:06;;;;;;;12.38;6.47;;;;;;;;;;5012034;28;20038;-81
2022/12/20 01:05:31;;;;;;;;;;;;;;;;;;5002326;28;20859;-80
2022/12/20 01:07:57;;;;;;;14.43;6.75;;;;;;;;;;5014398;28;19936;-83
2022/12/20 01:10:22;;;;;;;;;;;;;;;;;;4993918;28;20760;-82
2022/12/20 01:12:48;;;;;;;10.65;5.20;;;;;;;;;;5010881;28;19921;-82
2022/12/20 01:15:14;;;;;;;;;;;;;;;;;;5013350;28;20050;-81
2022/12/20 01:17:39;;;;;;;9.88;5.80;;;;;;;;;;5014006;28;19917;-82
2022/12/20 01:20:05;;;;;;;;;;;;;;;;;;5007054;28;20032;-82
2022/12/20 01:22:30;;;;;;;12.98;6.35;;;;;;;;;;5015663;28;19918;-81
2022/12/20 01:24:56;;;;;;;;;;;;;;;;;;5015477;28;20044;-80
2022/12/20 01:27:21;;;;;;;13.25;6.30;;;;;;;;;;5013621;28;20371;-81
2022/12/20 01:29:47;;;;;;;12.00;6.25;;;;;;;;;;5018812;28;20041;-81
2022/12/20 01:32:12;;;;;;;12.02;5.88;;;;;;;;;;4994901;28;20046;-83
2022/12/20 01:34:38;;;;;;;11.70;6.90;;;;;;;;;;4992787;28;20030;-81
2022/12/20 01:37:03;;;;;;;11.63;5.88;;;;;;;;;;5023738;28;20041;-81
2022/12/20 01:39:29;;;;;;;11.40;5.80;;;;;;;;;;5019835;28;20113;-81
2022/12/20 01:41:54;;;;;;;;;;;;;;;;;;4996723;28;20952;-81
2022/12/20 01:44:20;;;;;;;10.73;5.40;;;;;;;;;;5007488;28;20297;-82
2022/12/20 01:46:46;;;;;;;12.38;6.47;;;;;;;;;;5006977;28;20034;-81
2022/12/20 01:49:12;;;;;;;;;;;;;;;;;;5012379;28;20038;-82
2022/12/20 01:51:39;;;;;;;13.38;6.78;;;;;;;;;;5013631;28;19920;-83
2022/12/20 01:54:34;;;;;;;11.70;6.25;;;;;;;;;;5011958;28;20026;-82
2022/12/20 01:57:01;;;;;;;12.23;6.68;;;;;;;;;;4999908;28;20045;-82
2022/12/20 01:59:26;;;;;;;11.98;6.32;;;;;;;;;;5009115;28;20026;-83
2022/12/20 02:01:52;;;;;;;;;;;;;;;;;;4995937;28;20030;-81
2022/12/20 02:04:17;;;;;;;12.07;6.10;;;;;;;;;;5012126;28;19915;-82
2022/12/20 02:06:43;;;;;;;;;;;;;;;;;;5013003;28;20809;-80
2022/12/20 02:09:08;;;;;;;11.82;6.28;;;;;;;;;;5012361;28;20271;-82
2022/12/20 02:11:34;;;;;;;;;;;;;;;;;;5006777;28;20501;-82
2022/12/20 02:14:06;;;;;;;12.65;6.38;;;;;;;;;;5012293;28;19916;-82
2022/12/20 02:16:34;;;;;;;12.98;6.90;;;;;;;;;;5010918;28;20054;-82
2022/12/20 02:19:19;;;;;;;12.23;6.22;;;;;;;;;;4993951;28;20117;-82
2022/12/20 02:21:45;;;;;;;11.20;6.22;;;;;;;;;;5002960;28;20034;-82
2022/12/20 02:24:10;;;;;;;;;;;;;;;;;;5015519;28;20442;-82
2022/12/20 02:26:58;;;;;;;12.50;5.82;;;;;;;;;;5020174;28;20000;-81
2022/12/20 02:29:27;;;;;;;12.25;6.45;;;;;;;;;;5031282;28;20033;-82
2022/12/20 02:32:08;;;;;;;11.25;5.60;;;;;;;;;;5012791;28;20485;-81
2022/12/20 02:34:34;;;;;;;11.95;6.07;;;;;;;;;;5023141;28;20041;-82
2022/12/20 02:37:00;;;;;;;;;;;;;;;;;;4996968;28;20121;-81
2022/12/20 02:39:26;;;;;;;13.80;7.00;;;;;;;;;;5012684;28;19913;-82
2022/12/20 02:41:51;;;;;;;;;;;;;;;;;;5013368;28;20116;-81
2022/12/20 02:47:02;;;;;;;11.60;6.30;;;;;;;;;;5004908;28;20254;-83
2022/12/20 02:49:37;;;;;;;;;;;;;;;;;;4998915;28;20026;-83
2022/12/20 02:52:03;;;;;;;13.95;6.50;;;;;;;;;;5006210;28;19920;-81
2022/12/20 02:54:28;;;;;;;;;;;;;;;;;;5002672;28;20459;-80
2022/12/20 02:56:55;;;;;;;11.23;5.43;;;;;;;;;;5011082;28;19924;-81
2022/12/20 02:59:23;;;;;;;9.27;5.20;;;;;;;;;;4992299;28;20030;-82
2022/12/20 03:01:53;;;;;;;11.43;6.60;;;;;;;;;;4998643;28;20029;-83
2022/12/20 03:04:26;;;;;;;12.57;5.85;;;;;;;;;;5014318;28;20025;-83
2022/12/20 03:06:55;;;;;;;11.00;5.78;;;;;;;;;;5016102;28;20045;-81
2022/12/20 03:09:20;;;;;;;14.07;6.72;;;;;;;;;;5025147;28;20381;-82
2022/12/20 03:11:46;;;;;;;;;;;;;;;;;;5024986;28;20036;-82
2022/12/20 03:14:11;;;;;;;11.75;5.68;;;;;;;;;;5025633;28;19917;-82
2022/12/20 03:16:37;;;;;;;;;;;;;;;;;;5023388;28;20408;-82
2022/12/20 03:19:02;;;;;;;10.55;6.00;;;;;;;;;;5018854;28;19913;-82
2022/12/20 03:21:27;;;;;;;;;;;;;;;;;;5011309;28;20034;-82
2022/12/20 03:23:53;;;;;;;11.38;5.95;;;;;;;;;;5012001;28;20000;-84
2022/12/20 03:26:19;;;;;;;;;;;;;;;;;;5022022;28;20070;-82
2022/12/20 03:28:49;;;;;;;13.15;6.20;;;;;;;;;;5000245;28;19916;-82
2022/12/20 03:31:19;;;;;;;12.02;6.43;;;;;;;;;;5022688;28;20034;-82
2022/12/20 03:33:50;;;;;;;12.63;5.85;;;;;;;;;;5000109;28;20175;-82
2022/12/20 03:36:15;;;;;;;;;;;;;;;;;;5021491;28;20132;-82
2022/12/20 03:38:41;;;;;;;12.05;6.00;;;;;;;;;;5034087;28;19917;-83
2022/12/20 03:41:07;;;;;;;;;;;;;;;;;;5024061;28;20034;-82
2022/12/20 03:43:32;;;;;;;12.90;5.72;;;;;;;;;;5037773;28;19916;-82
2022/12/20 03:45:58;;;;;;;11.32;6.18;;;;;;;;;;5011554;28;20038;-82
2022/12/20 03:48:25;;;;;;;12.48;6.50;;;;;;;;;;5011763;28;20117;-82
2022/12/20 03:50:50;;;;;;;;;;;;;;;;;;5011989;28;20173;-82
2022/12/20 03:53:15;;;;;;;12.90;5.85;;;;;;;;;;5026888;28;19916;-82
2022/12/20 03:55:42;;;;;;;14.07;6.30;;;;;;;;;;5019375;28;20044;-82
2022/12/20 03:58:08;;;;;;;;;;;;;;;;;;4999610;28;20501;-81
2022/12/20 04:00:41;;;;;;;13.00;6.35;;;;;;;;;;5010789;28;19997;-82
2022/12/20 04:03:25;;;;;;;10.98;5.63;;;;;;;;;;5011643;28;20083;-82
2022/12/20 04:05:51;;;;;;;;;;;;;;;;;;4994983;28;20137;-81
2022/12/20 04:08:16;;;;;;;12.85;6.18;;;;;;;;;;5012600;28;19991;-82
2022/12/20 04:13:31;;;;;;;12.07;6.85;;;;;;;;;;5014238;28;19938;-82
2022/12/20 04:15:58;;;;;;;12.27;6.35;;;;;;;;;;5032098;28;20053;-82
2022/12/20 04:18:26;;;;;;;11.98;6.75;;;;;;;;;;5024625;28;20021;-83
2022/12/20 04:20:52;;;;;;;;;;;;;;;;;;5021196;28;20124;-81
2022/12/20 04:23:22;;;;;;;12.02;6.05;;;;;;;;;;5033071;28;19913;-82
2022/12/20 04:25:48;;;;;;;9.32;5.53;;;;;;;;;;5032757;28;20028;-82
2022/12/20 04:28:15;;;;;;;13.05;6.13;;;;;;;;;;5032862;28;20013;-82
2022/12/20 04:30:41;;;;;;;;;;;;;;;;;;5017690;28;20458;-82
2022/12/20 04:33:07;;;;;;;13.88;5.80;;;;;;;;;;5035883;28;19909;-82
2022/12/20 04:35:33;;;;;;;10.98;5.78;;;;;;;;;;5029362;28;20043;-82
2022/12/20 04:38:00;;;;;;;10.48;6.05;;;;;;;;;;5045461;28;20024;-82
2022/12/20 04:40:25;;;;;;;;;;;;;;;;;;5048588;28;20036;-81
2022/12/20 04:42:54;;;;;;;11.52;6.28;;;;;;;;;;5038163;28;19920;-80
2022/12/20 04:45:20;;;;;;;;;;;;;;;;;;5037900;28;20407;-81
2022/12/20 04:47:46;;;;;;;11.93;6.40;;;;;;;;;;5037866;28;19951;-83
2022/12/20 04:50:14;;;;;;;12.25;6.28;;;;;;;;;;5031182;28;20036;-82
2022/12/20 04:55:26;;;;;;;13.27;6.57;;;;;;;;;;5050478;28;20032;-82
2022/12/20 04:57:52;;;;;;;14.30;6.35;;;;;;;;;;5034004;28;20047;-82
2022/12/20 05:00:18;;;;;;;;;;;;;;;;;;5047818;28;20503;-82
2022/12/20 05:02:50;;;;;;;11.80;5.90;;;;;;;;;;5046369;28;19908;-83
2022/12/20 05:05:18;;;;;;;12.07;6.40;;;;;;;;;;5025824;28;20112;-80
2022/12/20 05:07:49;;;;;;;12.70;6.25;;;;;;;;;;5037879;28;20028;-81
2022/12/20 05:10:19;;;;;;;11.25;6.13;;;;;;;;;;5040879;28;20041;-83
2022/12/20 05:12:45;;;;;;;11.63;5.75;;;;;;;;;;5020247;28;20087;-82
2022/12/20 05:15:19;;;;;;;10.07;5.47;;;;;;;;;;5043876;28;20053;-83
2022/12/20 05:17:45;;;;;;;;;;;;;;;;;;5046503;28;20047;-84
2022/12/20 05:20:11;;;;;;;13.02;6.38;;;;;;;;;;5027347;28;19915;-82
2022/12/20 05:28:08;;;;;;;13.93;6.60;;;;;;;;;;5032704;28;20089;-81
2022/12/20 05:30:35;;;;;;;18.13;8.13;;;;;;;;;;5059443;28;20021;-81
2022/12/20 05:33:01;;;;;;;;;;;;;;;;;;5047391;28;20025;-82
2022/12/20 05:35:30;;;;;;;14.60;7.47;;;;;;;;;;5036768;28;19916;-82
2022/12/20 05:38:02;;;;;;;12.70;6.38;;;;;;;;;;5039953;28;20119;-81
2022/12/20 05:40:30;;;;;;;11.70;5.93;;;;;;;;;;5034595;28;20499;-80
2022/12/20 05:42:56;;;;;;;13.27;6.95;;;;;;;;;;5045627;28;20109;-82
2022/12/20 05:45:30;;;;;;;15.27;7.70;;;;;;;;;;5038543;28;20518;-82
2022/12/20 05:48:01;;;;;;;12.98;6.75;;;;;;;;;;5036630;28;20028;-82
2022/12/20 05:50:26;;;;;;;;;;;;;;;;;;5025175;28;20071;-82
2022/12/20 05:53:18;;;;;;;12.52;6.85;;;;;;;;;;5031128;28;19995;-82
2022/12/20 05:55:50;;;;;;;13.20;6.90;;;;;;;;;;5034741;28;20033;-83
2022/12/20 05:58:16;;;;;;;11.57;6.35;;;;;;;;;;5034323;28;20412;-82
2022/12/20 06:00:51;;;;;;;13.57;6.57;;;;;;;;;;5022251;28;20037;-83
2022/12/20 06:03:25;;;;;;;13.75;6.40;;;;;;;;;;5016615;28;20050;-85
2022/12/20 06:05:53;;;;;;;12.10;6.22;;;;;;;;;;5019311;28;20040;-83
2022/12/20 06:08:37;;;;;;;15.52;6.65;;;;;;;;;;5040435;28;20078;-83
2022/12/20 06:11:07;;;;;;;11.82;6.47;;;;;;;;;;5024005;28;20120;-83
2022/12/20 06:13:45;;;;;;;14.05;5.93;;;;;;;;;;5034489;28;20040;-83
2022/12/20 06:16:16;;;;;;;13.23;6.35;;;;;;;;;;5034367;28;20140;-84
2022/12/20 06:18:42;;;;;;;14.27;7.32;;;;;;;;;;5018501;28;20037;-82
2022/12/20 06:21:10;;;;;;;13.93;6.78;;;;;;;;;;5034047;28;20032;-83
2022/12/20 06:23:35;;;;;;;;;;;;;;;;;;5017845;28;20558;-84
2022/12/20 06:26:07;;;;;;;11.98;6.20;;;;;;;;;;5029311;28;20032;-83
2022/12/20 06:28:41;;;;;;;11.63;5.63;;;;;;;;;;5022987;28;20036;-82
2022/12/20 06:31:07;;;;;;;12.27;6.28;;;;;;;;;;5036952;28;20120;-83
2022/12/20 06:33:47;;;;;;;11.02;5.82;;;;;;;;;;5019510;28;20172;-82
2022/12/20 06:36:15;;;;;;;11.52;5.70;;;;;;;;;;5019472;28;20048;-82
2022/12/20 06:38:41;;;;;;;13.70;6.32;;;;;;;;;;5020907;28;20032;-83
2022/12/20 06:41:07;;;;;;;;;;;;;;;;;;5034337;28;20538;-83
2022/12/20 06:43:35;;;;;;;10.45;5.85;;;;;;;;;;5025131;28;19908;-83
2022/12/20 06:46:01;;;;;;;12.05;6.18;;;;;;;;;;5034822;28;20090;-83
2022/12/20 06:48:26;;;;;;;;;;;;;;;;;;5052380;28;20029;-82
2022/12/20 06:50:55;;;;;;;11.85;5.88;;;;;;;;;;5030799;28;20007;-84
2022/12/20 06:53:21;;;;;;;12.35;5.45;;;;;;;;;;5030847;28;20033;-83
2022/12/20 06:55:49;;;;;;;;;;;;;;;;;;5033403;28;20446;-82
2022/12/20 06:58:16;;;;;;;16.17;6.40;;;;;;;;;;5040414;28;20379;-82
2022/12/20 07:00:43;;;;;;;14.90;6.47;;;;;;;;;;5016690;28;20044;-82
2022/12/20 07:03:11;;;;;;;;;;;;;;;;;;5017447;28;20098;-82
2022/12/20 07:05:37;;;;;;;14.93;6.60;;;;;;;;;;5043851;28;19913;-83
2022/12/20 07:08:03;;;;;;;;;;;;;;;;;;5045907;28;20445;-84
2022/12/20 07:10:29;;;;;;;16.10;7.65;;;;;;;;;;5033157;28;19912;-83
2022/12/20 07:12:54;;;;;;;;;;;;;;;;;;5033556;28;20025;-83
2022/12/20 07:15:21;;;;;;;16.25;7.47;;;;;;;;;;5051138;28;19921;-83
2022/12/20 07:17:46;;;;;;;;;;;;;;;;;;5033866;28;20053;-82
2022/12/20 07:20:11;;;;;;;17.27;6.38;;;;;;;;;;5059691;28;20010;-84
2022/12/20 07:22:37;;;;;;;17.05;7.22;;;;;;;;;;5046368;28;20507;-83
2022/12/20 07:25:03;;;;;;;;;;;;;;;;;;5060858;28;20044;-82
2022/12/20 07:27:28;;;;;;;16.23;6.78;;;;;;;;;;5061445;28;19908;-83
2022/12/20 07:29:53;;;;;;;;;;;;;;;;;;5048157;28;20063;-83
2022/12/20 07:32:19;;;;;;;17.30;6.57;;;;;;;;;;5049024;28;19908;-82
2022/12/20 07:34:44;;;;;;;;;;;;;;;;;;5054714;28;20036;-82
2022/12/20 07:37:09;;;;;;;17.75;6.70;;;;;;;;;;5033091;28;19912;-82
2022/12/20 07:39:35;;;;;;;;;;;;;;;;;;5051692;28;20078;-82
2022/12/20 07:42:00;;;;;;;15.55;6.88;;;;;;;;;;5054497;28;19919;-83
2022/12/20 07:44:33;;;;;;;15.35;6.55;;;;;;;;;;5033299;28;20071;-84
2022/12/20 07:46:58;;;;;;;;;;;;;;;;;;5051388;28;20472;-83
2022/12/20 07:49:23;;;;;;;14.95;5.97;;;;;;;;;;5020034;28;19912;-83
2022/12/20 07:51:50;;;;;;;11.55;5.20;;;;;;;;;;5051729;28;20507;-82
2022/12/20 07:54:15;;;;;;;15.00;5.65;;;;;;;;;;5042157;28;20068;-83
2022/12/20 07:56:40;;;;;;;;;;;;;;;;;;5036970;28;20075;-83
2022/12/20 07:59:06;;;;;;;14.00;6.15;;;;;;;;;;5037723;28;19908;-82
2022/12/20 08:01:31;;;;;;;;;;;;;;;;;;5033006;28;20048;-82
2022/12/20 08:04:07;;;;;;;11.52;5.30;;;;;;;;;;5058531;28;19909;-83
2022/12/20 08:06:33;;;;;;;13.18;6.20;;;;;;;;;;5056515;28;20565;-83
2022/12/20 08:08:59;;;;;;;14.02;5.30;;;;;;;;;;5042774;28;20439;-83
2022/12/20 08:11:24;;;;;;;;;;;;;;;;;;5046182;28;20064;-83
2022/12/20 08:13:50;;;;;;;11.82;5.63;;;;;;;;;;5032414;28;19951;-84
2022/12/20 08:16:15;;;;;;;10.35;4.90;;;;;;;;;;5057358;28;20057;-82
2022/12/20 08:18:41;;;;;;;11.85;6.03;;;;;;;;;;5053770;28;20037;-83
2022/12/20 08:21:07;;;;;;;13.25;5.75;;;;;;;;;;5060120;28;20131;-83
2022/12/20 08:23:32;;;;;;;;;;;;;;;;;;5037388;28;20025;-83
2022/12/20 08:26:01;;;;;;;10.63;5.38;;;;;;;;;;5055112;28;19995;-83
2022/12/20 08:28:26;;;;;;;12.27;4.97;;;;;;;;;;5035702;28;20108;-83
2022/12/20 08:30:52;;;;;;;;;;;;;;;;;;5046341;28;20058;-82
2022/12/20 08:33:18;;;;;;;12.05;4.90;;;;;;;;;;5069684;28;19951;-84
2022/12/20 08:35:44;;;;;;;10.13;5.15;;;;;;;;;;5069408;28;20123;-83
2022/12/20 08:38:09;;;;;;;;;;;;;;;;;;5027855;28;20448;-82
2022/12/20 08:40:34;;;;;;;10.23;5.15;;;;;;;;;;5054737;28;19916;-82
2022/12/20 08:43:00;;;;;;;10.93;5.53;;;;;;;;;;5047231;28;20100;-82
2022/12/20 08:45:25;;;;;;;10.18;4.68;;;;;;;;;;5067571;28;20074;-82
2022/12/20 08:47:52;;;;;;;11.40;5.20;;;;;;;;;;5047158;28;20036;-83
2022/12/20 08:50:18;;;;;;;9.23;5.07;;;;;;;;;;5064592;28;20478;-83
2022/12/20 08:52:43;;;;;;;;;;;;;;;;;;5054975;28;20474;-83
2022/12/20 08:55:09;;;;;;;9.13;4.78;;;;;;;;;;5053976;28;19913;-83
2022/12/20 08:57:34;;;;;;;12.00;4.97;;;;;;;;;;5053295;28;20404;-81
2022/12/20 09:00:00;;;;;;;10.77;5.47;;;;;;;;;;5053038;28;20436;-84
2022/12/20 09:02:25;;;;;;;9.18;4.70;;;;;;;;;;5035251;28;20100;-83
2022/12/20 09:04:51;;;;;;;;;;;;;;;;;;5063625;28;20044;-82
2022/12/20 09:07:16;;;;;;;9.50;4.82;;;;;;;;;;5070297;28;20366;-83
2022/12/20 09:09:42;;;;;;;11.07;5.55;;;;;;;;;;5035166;28;20127;-83
2022/12/20 09:12:07;;;;;;;;;;;;;;;;;;5051672;28;20107;-83
2022/12/20 09:14:33;;;;;;;10.10;5.05;;;;;;;;;;5057396;28;19912;-84
2022/12/20 09:16:58;;;;;;;;;;;;;;;;;;5052701;28;20428;-83
2022/12/20 09:19:23;;;;;;;9.13;4.90;;;;;;;;;;5035406;28;20287;-84
2022/12/20 09:21:49;;;;;;;9.00;4.82;;;;;;;;;;5052379;28;20032;-83
2022/12/20 09:24:15;;;;;;;9.80;5.00;;;;;;;;;;5051940;28;20074;-83
2022/12/20 09:26:40;;;;;;;;;;;;;;;;;;5037994;28;20484;-82
2022/12/20 09:29:05;;;;;;;11.40;5.00;;;;;;;;;;5058333;28;19946;-82
2022/12/20 09:31:31;;;;;;;;;;;;;;;;;;5052984;28;20113;-83
2022/12/20 09:33:57;;;;;;;11.77;4.85;;;;;;;;;;5052363;28;20371;-83
2022/12/20 09:36:24;;;;;;;10.63;5.22;;;;;;;;;;5052984;28;20039;-83
2022/12/20 09:38:49;;;;;;;10.85;5.03;;;;;;;;;;5050318;28;20064;-82
2022/12/20 09:41:15;;;;;;;;;;;;;;;;;;5058587;28;20522;-82
2022/12/20 09:43:40;;;;;;;10.07;5.28;;;;;;;;;;5059789;28;19916;-83
2022/12/20 09:46:06;;;;;;;;;;;;;;;;;;5033468;28;20025;-82
2022/12/20 09:48:32;;;;;;;10.30;4.55;;;;;;;;;;5056044;28;19948;-82
2022/12/20 09:51:16;;;;;;;11.82;5.13;;;;;;;;;;5053422;28;20021;-82
2022/12/20 09:53:51;;;;;;;10.15;5.25;;;;;;;;;;5054746;28;20033;-84
2022/12/20 09:56:26;;;;;;;11.40;5.60;;;;;;;;;;5052654;28;20406;-83
2022/12/20 09:59:02;;;;;;;10.25;5.28;;;;;;;;;;5040206;28;20047;-83
2022/12/20 10:01:29;;;;;;;9.95;5.20;;;;;;;;;;5012249;28;20025;-83
2022/12/20 10:03:55;;;;;;;10.27;4.82;;;;;;;;;;5038395;28;20067;-83
2022/12/20 10:06:20;;;;;;;;;;;;;;;;;;5024396;28;20078;-84
2022/12/20 10:08:50;;;;;;;10.35;5.43;;;;;;;;;;5044626;28;19909;-83
2022/12/20 10:11:18;;;;;;;10.07;5.03;;;;;;;;;;5052070;28;20132;-85
2022/12/20 10:14:02;;;;;;;9.98;4.90;;;;;;;;;;5052473;28;20032;-85
2022/12/20 10:16:32;;;;;;;11.02;5.70;;;;;;;;;;5051424;28;20055;-83
2022/12/20 10:18:57;;;;;;;10.52;5.22;;;;;;;;;;5052481;28;20039;-83
2022/12/20 10:21:26;;;;;;;10.55;5.45;;;;;;;;;;5052507;28;20033;-84
2022/12/20 10:24:01;;;;;;;8.88;4.80;;;;;;;;;;5033872;28;20112;-83
2022/12/20 10:26:27;;;;;;;10.15;5.55;;;;;;;;;;5051815;28;20044;-84
2022/12/20 10:28:52;;;;;;;10.32;5.28;;;;;;;;;;5033819;28;20032;-83
2022/12/20 10:31:18;;;;;;;11.52;5.38;;;;;;;;;;5051655;28;20127;-84
2022/12/20 10:33:43;;;;;;;9.77;6.13;;;;;;;;;;5036082;28;20044;-83
2022/12/20 10:36:18;;;;;;;10.73;5.60;;;;;;;;;;5053501;28;20151;-84
2022/12/20 10:38:44;;;;;;;10.50;4.95;;;;;;;;;;5054360;28;20475;-84
2022/12/20 10:41:12;;;;;;;9.60;5.40;;;;;;;;;;5020726;28;20029;-84
2022/12/20 10:43:42;;;;;;;9.57;5.22;;;;;;;;;;5018653;28;20523;-84
2022/12/20 10:46:07;;;;;;;9.35;4.97;;;;;;;;;;5033942;28;20135;-84
2022/12/20 10:48:34;;;;;;;9.75;5.32;;;;;;;;;;5040245;28;20123;-83
2022/12/20 10:51:00;;;;;;;10.02;4.70;;;;;;;;;;5013168;28;20029;-82
2022/12/20 10:53:27;;;;;;;8.80;4.80;;;;;;;;;;5047241;28;20021;-83
2022/12/20 10:55:52;;;;;;;9.27;4.88;;;;;;;;;;5033341;28;20398;-84
2022/12/20 10:58:21;;;;;;;8.40;4.40;;;;;;;;;;5018959;28;20036;-83
2022/12/20 11:00:48;;;;;;;9.32;4.60;;;;;;;;;;5053153;28;20388;-83
2022/12/20 11:03:18;;;;;;;8.82;5.15;;;;;;;;;;5057264;28;20564;-83
2022/12/20 11:05:52;;;;;;;8.05;4.72;;;;;;;;;;5051033;28;20850;-84
2022/12/20 11:08:18;;;;;;;9.43;5.25;;;;;;;;;;5028844;28;20176;-85
2022/12/20 11:10:44;;;;;;;8.93;4.47;;;;;;;;;;5033143;28;20117;-84
2022/12/20 11:13:22;;;;;;;8.00;4.28;;;;;;;;;;5032920;28;20033;-84
2022/12/20 11:15:49;;;;;;;9.32;5.38;;;;;;;;;;5050437;28;20072;-83
2022/12/20 11:18:23;;;;;;;11.55;5.38;;;;;;;;;;5021024;28;20056;-83
2022/12/20 11:21:07;;;;;;;8.73;4.68;;;;;;;;;;5037915;28;20447;-83
2022/12/20 11:23:32;;;;;;;10.13;5.80;;;;;;;;;;5051161;28;20037;-84
2022/12/20 11:26:07;;;;;;;10.63;6.43;;;;;;;;;;5051331;28;20021;-82
2022/12/20 11:28:59;;;;;;;10.30;5.68;;;;;;;;;;5020814;28;20071;-83
2022/12/20 11:31:25;;;;;;;10.85;5.80;;;;;;;;;;4987038;28;20044;-83
2022/12/20 11:34:09;;;;;;;12.18;6.20;;;;;;;;;;5050751;28;20013;-84
2022/12/20 11:36:43;;;;;;;11.77;6.22;;;;;;;;;;5050660;28;20071;-84
2022/12/20 11:39:22;;;;;;;11.73;6.00;;;;;;;;;;5050792;28;20021;-83
2022/12/20 11:41:51;;;;;;;11.52;6.10;;;;;;;;;;5033486;28;20032;-83
2022/12/20 11:44:25;;;;;;;11.50;6.03;;;;;;;;;;5016384;28;20037;-84
2022/12/20 11:47:00;;;;;;;14.10;6.75;;;;;;;;;;5053653;28;20037;-82
2022/12/20 11:49:44;;;;;;;14.32;6.55;;;;;;;;;;5040997;28;20036;-84
2022/12/20 11:52:28;;;;;;;14.45;6.72;;;;;;;;;;5037364;28;20025;-84
2022/12/20 11:55:06;;;;;;;14.63;6.45;;;;;;;;;;5058043;28;20515;-84
2022/12/20 11:57:35;;;;;;;12.27;6.65;;;;;;;;;;5037225;28;20068;-82
2022/12/20 12:00:01;;;;;;;13.27;6.05;;;;;;;;;;5020376;28;20403;-82
2022/12/20 12:02:43;;;;;;;14.32;6.88;;;;;;;;;;5038970;28;20125;-83
2022/12/20 12:05:28;;;;;;;11.85;6.60;;;;;;;;;;5044966;28;20128;-83
2022/12/20 12:07:55;;;;;;;14.13;6.53;;;;;;;;;;5064568;28;20028;-83
2022/12/20 12:10:22;;;;;;;13.90;7.07;;;;;;;;;;5017716;28;20087;-83
2022/12/20 12:12:51;;;;;;;13.30;6.45;;;;;;;;;;5050811;28;20083;-82
2022/12/20 12:15:31;;;;;;;11.32;6.05;;;;;;;;;;5053814;28;20483;-82
2022/12/20 12:17:59;;;;;;;14.70;6.68;;;;;;;;;;5018753;28;20044;-84
2022/12/20 12:20:43;;;;;;;15.13;6.93;;;;;;;;;;5054063;28;20442;-84
2022/12/20 12:23:12;;;;;;;14.85;7.50;;;;;;;;;;5053568;28;20496;-84
2022/12/20 12:25:37;;;;;;;16.40;7.13;;;;;;;;;;5053948;28;20029;-84
2022/12/20 12:28:03;;;;;;;13.52;7.05;;;;;;;;;;5065525;28;20036;-83
2022/12/20 12:30:28;;;;;;;15.48;7.47;;;;;;;;;;5054258;28;20033;-82
2022/12/20 12:33:04;;;;;;;12.52;6.65;;;;;;;;;;5056810;28;20047;-84
2022/12/20 12:35:56;;;;;;;13.90;6.78;;;;;;;;;;5016558;28;20033;-84
2022/12/20 12:38:21;;;;;;;14.18;6.32;;;;;;;;;;5051093;28;20438;-85
2022/12/20 12:40:50;;;;;;;15.65;7.35;;;;;;;;;;5064695;28;20124;-83
2022/12/20 12:43:30;;;;;;;14.05;7.07;;;;;;;;;;5062050;28;20115;-84
2022/12/20 12:45:57;;;;;;;14.07;6.72;;;;;;;;;;5060488;28;20040;-83
2022/12/20 12:48:28;;;;;;;12.95;6.88;;;;;;;;;;5042992;28;20028;-83
2022/12/20 12:50:55;;;;;;;12.38;6.95;;;;;;;;;;5062141;28;20068;-84
2022/12/20 12:53:20;;;;;;;13.23;7.15;;;;;;;;;;5036480;28;20492;-82
2022/12/20 12:55:46;;;;;;;14.82;7.55;;;;;;;;;;5018997;28;20128;-85
2022/12/20 12:58:29;;;;;;;14.43;7.10;;;;;;;;;;5034671;28;20069;-84
2022/12/20 13:00:58;;;;;;;14.10;7.40;;;;;;;;;;5053685;28;20032;-83
2022/12/20 13:03:59;;;;;;;15.88;7.10;;;;;;;;;;5037182;28;20492;-84
2022/12/20 13:06:25;;;;;;;17.27;7.38;;;;;;;;;;4957107;28;20031;-83
2022/12/20 13:08:51;;;;;;;;;;;;;;;;;;5023273;28;20025;-83
2022/12/20 13:11:27;;;;;;;14.98;7.15;;;;;;;;;;5061106;28;19912;-86
2022/12/20 13:14:12;;;;;;;18.65;7.20;;;;;;;;;;5040831;28;20069;-84
2022/12/20 13:16:39;;;;;;;15.00;7.28;;;;;;;;;;5055043;28;20045;-84
2022/12/20 13:19:10;;;;;;;15.82;7.30;;;;;;;;;;5040415;28;20032;-83
2022/12/20 13:21:36;;;;;;;13.95;6.68;;;;;;;;;;5024068;28;20025;-84
2022/12/20 13:24:20;;;;;;;16.95;7.63;;;;;;;;;;5073698;28;20025;-84
2022/12/20 13:26:50;;;;;;;18.70;7.90;;;;;;;;;;5070733;28;20036;-85
2022/12/20 13:29:23;;;;;;;14.02;7.55;;;;;;;;;;5016263;28;20572;-84
2022/12/20 13:31:48;;;;;;;15.40;7.45;;;;;;;;;;5028051;28;20506;-83
2022/12/20 13:34:43;;;;;;;15.82;6.80;;;;;;;;;;5042153;28;20124;-84
2022/12/20 13:37:25;;;;;;;19.05;8.60;;;;;;;;;;5040936;28;20189;-83
2022/12/20 13:39:51;;;;;;;16.23;8.05;;;;;;;;;;5016537;28;20037;-84
2022/12/20 13:42:38;;;;;;;14.38;8.80;;;;;;;;;;5038161;28;20025;-84
2022/12/20 13:45:03;;;;;;;12.88;7.97;;;;;;;;;;5040260;28;20029;-85
2022/12/20 13:47:31;;;;;;;15.68;8.18;;;;;;;;;;5040027;28;20036;-83
2022/12/20 13:49:58;;;;;;;14.23;7.38;;;;;;;;;;5034630;28;20044;-84
2022/12/20 13:52:31;;;;;;;18.48;8.27;;;;;;;;;;5035120;28;20032;-83
2022/12/20 13:55:00;;;;;;;16.70;8.48;;;;;;;;;;5017928;28;20036;-84
2022/12/20 13:57:27;;;;;;;16.17;8.43;;;;;;;;;;5052558;28;20041;-84
2022/12/20 13:59:53;;;;;;;14.35;7.55;;;;;;;;;;5034569;28;20032;-83
2022/12/20 14:02:19;;;;;;;;;;;;;;;;;;5035116;28;20128;-82
2022/12/20 14:04:45;;;;;;;15.70;8.60;;;;;;;;;;5052220;28;20011;-83
2022/12/20 14:07:13;;;;;;;14.35;8.00;;;;;;;;;;5034902;28;20025;-83
2022/12/20 14:09:42;;;;;;;20.77;8.82;;;;;;;;;;5015783;28;20087;-83
2022/12/20 14:12:11;;;;;;;16.85;8.23;;;;;;;;;;5022731;28;20025;-82
2022/12/20 14:14:44;;;;;;;17.00;8.27;;;;;;;;;;5018663;28;20037;-85
2022/12/20 14:17:16;;;;;;;18.80;9.02;;;;;;;;;;5011522;28;20076;-84
2022/12/20 14:19:42;;;;;;;16.65;8.52;;;;;;;;;;5014197;28;20042;-82
2022/12/20 14:22:09;;;;;;;18.92;7.97;;;;;;;;;;5013244;28;20462;-83
2022/12/20 14:24:34;;;;;;;16.20;8.02;;;;;;;;;;5010638;28;20489;-83
2022/12/20 14:27:00;;;;;;;15.38;7.97;;;;;;;;;;4997710;28;20027;-83
2022/12/20 14:29:27;;;;;;;17.08;8.55;;;;;;;;;;5007742;28;20519;-83
2022/12/20 14:31:52;;;;;;;16.58;8.45;;;;;;;;;;5012046;28;20068;-83
2022/12/20 14:34:20;;;;;;;17.40;8.30;;;;;;;;;;5010125;28;20041;-85
2022/12/20 14:36:46;;;;;;;19.42;8.63;;;;;;;;;;5012831;28;20448;-83
2022/12/20 14:39:11;;;;;;;;;;;;;;;;;;4996563;28;20080;-83
2022/12/20 14:41:38;;;;;;;17.00;8.60;;;;;;;;;;5012767;28;19913;-83
2022/12/20 14:44:14;;;;;;;17.50;8.35;;;;;;;;;;4996273;28;20038;-83
2022/12/20 14:46:40;;;;;;;16.83;8.45;;;;;;;;;;5013766;28;20532;-83
2022/12/20 14:49:24;;;;;;;14.13;7.78;;;;;;;;;;4994579;28;20032;-84
2022/12/20 14:51:50;;;;;;;16.20;8.02;;;;;;;;;;5010684;28;20520;-83
2022/12/20 14:54:20;;;;;;;15.07;8.68;;;;;;;;;;5000042;28;20032;-82
2022/12/20 14:56:46;;;;;;;17.92;8.52;;;;;;;;;;5012273;28;20038;-82
2022/12/20 14:59:15;;;;;;;14.90;8.73;;;;;;;;;;5000132;28;20022;-83
2022/12/20 15:01:40;;;;;;;16.25;8.25;;;;;;;;;;5024292;28;20033;-83
2022/12/20 15:04:19;;;;;;;16.30;8.25;;;;;;;;;;5010177;28;20120;-83
2022/12/20 15:06:46;;;;;;;16.45;8.57;;;;;;;;;;4997227;28;20509;-83
2022/12/20 15:09:13;;;;;;;16.13;8.00;;;;;;;;;;5011482;28;20029;-83
2022/12/20 15:11:39;;;;;;;15.32;8.40;;;;;;;;;;5011494;28;20037;-84
2022/12/20 15:14:24;;;;;;;14.77;7.68;;;;;;;;;;5011062;28;20029;-83
2022/12/20 15:16:51;;;;;;;13.82;7.68;;;;;;;;;;5004719;28;20437;-83
2022/12/20 15:19:16;;;;;;;15.45;7.70;;;;;;;;;;5011794;28;20545;-83